sensor_id;sensor_type;location;lat;lon;timestamp;temperature;humidity
62991;DHT22;49084;48.204;16.202;2022-12-18T00:01:31;-0.70;99.90
62991;DHT22;49084;48.204;16.202;2022-12-18T00:03:58;-0.70;99.90
62991;DHT22;49084;48.204;16.202;2022-12-18T00:06:26;0.20;99.90
62991;DHT22;49084;48.204;16.202;2022-12-18T00:08:52;0.10;99.90
62991;DHT22;49084;48.204;16.202;2022-12-18T00:11:20;-0.10;99.90
62991;DHT22;49084;48.204;16.202;2022-12-18T00:13:47;0.00;99.90
62991;DHT22;49084;48.204;16.202;2022-12-18T00:16:14;-0.50;99.90
62991;DHT22;49084;48.204;16.202;2022-12-18T00:18:41;-0.80;99.90
62991;DHT22;49084;48.204;16.202;2022-12-18T00:21:10;-0.90;99.90
62991;DHT22;49084;48.204;16.202;2022-12-18T00:23:37;-0.90;99.90
62991;DHT22;49084;48.204;16.202;2022-12-18T00:26:05;-0.10;99.90
62991;DHT22;49084;48.204;16.202;2022-12-18T00:28:32;-0.90;99.90
62991;DHT22;49084;48.204;16.202;2022-12-18T00:33:26;-0.80;99.90
62991;DHT22;49084;48.204;16.202;2022-12-18T00:35:52;-0.40;99.90
62991;DHT22;49084;48.204;16.202;2022-12-18T00:38:18;-0.50;99.90
62991;DHT22;49084;48.204;16.202;2022-12-18T00:40:43;-1.10;99.90
62991;DHT22;49084;48.204;16.202;2022-12-18T00:43:09;0.30;99.90
62991;DHT22;49084;48.204;16.202;2022-12-18T00:45:35;-0.90;99.90
62991;DHT22;49084;48.204;16.202;2022-12-18T00:48:00;-1.10;99.90
62991;DHT22;49084;48.204;16.202;2022-12-18T00:50:26;-1.40;99.90
62991;DHT22;49084;48.204;16.202;2022-12-18T00:52:52;-1.40;99.90
62991;DHT22;49084;48.204;16.202;2022-12-18T00:55:18;-1.50;99.90
62991;DHT22;49084;48.204;16.202;2022-12-18T00:57:43;-0.20;99.90
62991;DHT22;49084;48.204;16.202;2022-12-18T01:00:12;-1.40;99.90
62991;DHT22;49084;48.204;16.202;2022-12-18T01:02:38;-1.70;99.90
62991;DHT22;49084;48.204;16.202;2022-12-18T01:05:04;0.20;99.90
62991;DHT22;49084;48.204;16.202;2022-12-18T01:07:30;-1.90;99.90
62991;DHT22;49084;48.204;16.202;2022-12-18T01:09:55;-1.90;99.90
62991;DHT22;49084;48.204;16.202;2022-12-18T01:12:21;-0.40;99.90
62991;DHT22;49084;48.204;16.202;2022-12-18T01:14:47;0.00;99.90
62991;DHT22;49084;48.204;16.202;2022-12-18T01:17:12;-2.20;99.90
62991;DHT22;49084;48.204;16.202;2022-12-18T01:19:38;-1.90;99.90
62991;DHT22;49084;48.204;16.202;2022-12-18T01:22:04;-0.90;99.90
62991;DHT22;49084;48.204;16.202;2022-12-18T01:24:29;-0.90;99.90
62991;DHT22;49084;48.204;16.202;2022-12-18T01:26:55;-0.20;99.90
62991;DHT22;49084;48.204;16.202;2022-12-18T01:29:22;-2.50;99.90
62991;DHT22;49084;48.204;16.202;2022-12-18T01:31:48;-0.90;99.90
62991;DHT22;49084;48.204;16.202;2022-12-18T01:34:14;-1.30;99.90
62991;DHT22;49084;48.204;16.202;2022-12-18T01:36:40;-1.80;99.90
62991;DHT22;49084;48.204;16.202;2022-12-18T01:39:10;-2.70;99.90
62991;DHT22;49084;48.204;16.202;2022-12-18T01:41:36;-2.10;99.90
62991;DHT22;49084;48.204;16.202;2022-12-18T01:45:20;-2.80;99.90
62991;DHT22;49084;48.204;16.202;2022-12-18T01:47:33;-2.90;99.90
62991;DHT22;49084;48.204;16.202;2022-12-18T01:50:06;-2.90;99.90
62991;DHT22;49084;48.204;16.202;2022-12-18T01:52:32;-3.00;99.90
62991;DHT22;49084;48.204;16.202;2022-12-18T01:54:59;-2.20;99.90
62991;DHT22;49084;48.204;16.202;2022-12-18T01:57:26;-2.90;99.90
62991;DHT22;49084;48.204;16.202;2022-12-18T01:59:53;-3.10;99.90
62991;DHT22;49084;48.204;16.202;2022-12-18T02:02:21;-2.20;99.90
62991;DHT22;49084;48.204;16.202;2022-12-18T02:04:47;-2.00;99.90
62991;DHT22;49084;48.204;16.202;2022-12-18T02:07:37;-3.20;99.90
62991;DHT22;49084;48.204;16.202;2022-12-18T02:10:27;-3.30;99.90
62991;DHT22;49084;48.204;16.202;2022-12-18T02:13:14;-3.30;99.90
62991;DHT22;49084;48.204;16.202;2022-12-18T02:18:21;-2.50;99.90
62991;DHT22;49084;48.204;16.202;2022-12-18T02:21:09;-3.40;99.90
62991;DHT22;49084;48.204;16.202;2022-12-18T02:29:18;-3.50;99.90
62991;DHT22;49084;48.204;16.202;2022-12-18T02:31:51;-3.60;99.90
62991;DHT22;49084;48.204;16.202;2022-12-18T02:34:18;-3.00;99.90
62991;DHT22;49084;48.204;16.202;2022-12-18T02:36:46;-3.70;99.90
62991;DHT22;49084;48.204;16.202;2022-12-18T02:39:14;-2.80;99.90
62991;DHT22;49084;48.204;16.202;2022-12-18T02:41:40;-1.50;99.90
62991;DHT22;49084;48.204;16.202;2022-12-18T02:44:13;-3.90;99.90
62991;DHT22;49084;48.204;16.202;2022-12-18T02:46:46;-3.90;99.90
62991;DHT22;49084;48.204;16.202;2022-12-18T02:50:05;-2.20;99.90
62991;DHT22;49084;48.204;16.202;2022-12-18T02:55:00;-4.00;99.90
62991;DHT22;49084;48.204;16.202;2022-12-18T02:57:54;-4.00;99.90
62991;DHT22;49084;48.204;16.202;2022-12-18T03:03:03;-4.10;99.90
62991;DHT22;49084;48.204;16.202;2022-12-18T03:05:41;-3.70;99.90
62991;DHT22;49084;48.204;16.202;2022-12-18T03:08:10;-3.40;99.90
62991;DHT22;49084;48.204;16.202;2022-12-18T03:10:51;-4.10;99.90
62991;DHT22;49084;48.204;16.202;2022-12-18T03:13:54;-3.80;99.90
62991;DHT22;49084;48.204;16.202;2022-12-18T03:16:24;-3.70;99.90
62991;DHT22;49084;48.204;16.202;2022-12-18T03:19:18;-4.30;99.90
62991;DHT22;49084;48.204;16.202;2022-12-18T03:21:49;-4.30;99.90
62991;DHT22;49084;48.204;16.202;2022-12-18T03:24:15;-2.90;99.90
62991;DHT22;49084;48.204;16.202;2022-12-18T03:26:45;-4.20;99.90
62991;DHT22;49084;48.204;16.202;2022-12-18T03:29:25;-4.40;99.90
62991;DHT22;49084;48.204;16.202;2022-12-18T03:31:56;-4.40;99.90
62991;DHT22;49084;48.204;16.202;2022-12-18T03:34:29;-2.70;99.90
62991;DHT22;49084;48.204;16.202;2022-12-18T03:36:56;-3.00;99.90
62991;DHT22;49084;48.204;16.202;2022-12-18T03:39:23;-4.50;99.90
62991;DHT22;49084;48.204;16.202;2022-12-18T03:41:55;-3.50;99.90
62991;DHT22;49084;48.204;16.202;2022-12-18T03:44:32;-4.60;99.90
62991;DHT22;49084;48.204;16.202;2022-12-18T03:47:09;-3.40;99.90
62991;DHT22;49084;48.204;16.202;2022-12-18T03:49:57;-4.70;99.90
62991;DHT22;49084;48.204;16.202;2022-12-18T03:52:35;-4.80;99.90
62991;DHT22;49084;48.204;16.202;2022-12-18T03:55:03;-4.80;99.90
62991;DHT22;49084;48.204;16.202;2022-12-18T03:57:30;-4.80;99.90
62991;DHT22;49084;48.204;16.202;2022-12-18T04:00:03;-2.80;99.90
62991;DHT22;49084;48.204;16.202;2022-12-18T04:02:31;-4.90;99.90
62991;DHT22;49084;48.204;16.202;2022-12-18T04:04:59;-3.20;99.90
62991;DHT22;49084;48.204;16.202;2022-12-18T04:07:25;-3.90;99.90
62991;DHT22;49084;48.204;16.202;2022-12-18T04:09:54;-3.20;99.90
62991;DHT22;49084;48.204;16.202;2022-12-18T04:12:23;-2.50;99.90
62991;DHT22;49084;48.204;16.202;2022-12-18T04:14:49;-4.90;99.90
62991;DHT22;49084;48.204;16.202;2022-12-18T04:17:16;-4.80;99.90
62991;DHT22;49084;48.204;16.202;2022-12-18T04:19:41;-3.90;99.90
62991;DHT22;49084;48.204;16.202;2022-12-18T04:22:09;-2.50;99.90
62991;DHT22;49084;48.204;16.202;2022-12-18T04:24:35;-5.10;99.90
62991;DHT22;49084;48.204;16.202;2022-12-18T04:27:01;-3.30;99.90
62991;DHT22;49084;48.204;16.202;2022-12-18T04:29:27;-5.10;99.90
62991;DHT22;49084;48.204;16.202;2022-12-18T04:31:52;-4.40;99.90
62991;DHT22;49084;48.204;16.202;2022-12-18T04:34:18;-5.00;99.90
62991;DHT22;49084;48.204;16.202;2022-12-18T04:36:43;-3.10;99.90
62991;DHT22;49084;48.204;16.202;2022-12-18T04:39:09;-5.20;99.90
62991;DHT22;49084;48.204;16.202;2022-12-18T04:41:35;-5.20;99.90
62991;DHT22;49084;48.204;16.202;2022-12-18T04:44:01;-5.30;99.90
62991;DHT22;49084;48.204;16.202;2022-12-18T04:46:26;-5.30;99.90
62991;DHT22;49084;48.204;16.202;2022-12-18T04:48:52;-3.50;99.90
62991;DHT22;49084;48.204;16.202;2022-12-18T04:51:18;-3.20;99.90
62991;DHT22;49084;48.204;16.202;2022-12-18T04:53:43;-3.90;99.90
62991;DHT22;49084;48.204;16.202;2022-12-18T04:56:12;-5.40;99.90
62991;DHT22;49084;48.204;16.202;2022-12-18T04:58:39;-3.60;99.90
62991;DHT22;49084;48.204;16.202;2022-12-18T05:01:06;-3.50;99.90
62991;DHT22;49084;48.204;16.202;2022-12-18T05:03:33;-3.60;99.90
62991;DHT22;49084;48.204;16.202;2022-12-18T05:05:59;-5.40;99.90
62991;DHT22;49084;48.204;16.202;2022-12-18T05:08:25;-5.20;99.90
62991;DHT22;49084;48.204;16.202;2022-12-18T05:11:08;-5.40;99.90
62991;DHT22;49084;48.204;16.202;2022-12-18T05:13:35;-5.50;99.90
62991;DHT22;49084;48.204;16.202;2022-12-18T05:16:01;-5.50;99.90
62991;DHT22;49084;48.204;16.202;2022-12-18T05:18:27;-5.60;99.90
62991;DHT22;49084;48.204;16.202;2022-12-18T05:20:54;-3.90;99.90
62991;DHT22;49084;48.204;16.202;2022-12-18T05:23:21;-5.70;99.90
62991;DHT22;49084;48.204;16.202;2022-12-18T05:26:00;-3.90;99.90
62991;DHT22;49084;48.204;16.202;2022-12-18T05:28:28;-3.20;99.90
62991;DHT22;49084;48.204;16.202;2022-12-18T05:30:57;-3.90;99.90
62991;DHT22;49084;48.204;16.202;2022-12-18T05:33:23;-4.50;99.90
62991;DHT22;49084;48.204;16.202;2022-12-18T05:35:54;-3.80;99.90
62991;DHT22;49084;48.204;16.202;2022-12-18T05:38:21;-5.80;99.90
62991;DHT22;49084;48.204;16.202;2022-12-18T05:40:48;-4.20;99.90
62991;DHT22;49084;48.204;16.202;2022-12-18T05:43:14;-5.80;99.90
62991;DHT22;49084;48.204;16.202;2022-12-18T05:45:40;-5.80;99.90
62991;DHT22;49084;48.204;16.202;2022-12-18T05:48:07;-4.60;99.90
62991;DHT22;49084;48.204;16.202;2022-12-18T05:50:37;-5.90;99.90
62991;DHT22;49084;48.204;16.202;2022-12-18T05:53:04;-3.70;99.90
62991;DHT22;49084;48.204;16.202;2022-12-18T05:55:33;-6.00;99.90
62991;DHT22;49084;48.204;16.202;2022-12-18T05:57:59;-6.00;99.90
62991;DHT22;49084;48.204;16.202;2022-12-18T06:00:24;-3.60;99.90
62991;DHT22;49084;48.204;16.202;2022-12-18T06:02:50;-3.90;99.90
62991;DHT22;49084;48.204;16.202;2022-12-18T06:05:16;-4.10;99.90
62991;DHT22;49084;48.204;16.202;2022-12-18T06:07:41;-6.10;99.90
62991;DHT22;49084;48.204;16.202;2022-12-18T06:10:07;-6.20;99.90
62991;DHT22;49084;48.204;16.202;2022-12-18T06:12:33;-6.20;99.90
62991;DHT22;49084;48.204;16.202;2022-12-18T06:14:59;-6.20;99.90
62991;DHT22;49084;48.204;16.202;2022-12-18T06:17:32;-6.30;99.90
62991;DHT22;49084;48.204;16.202;2022-12-18T06:19:58;-6.20;99.90
62991;DHT22;49084;48.204;16.202;2022-12-18T06:22:24;-4.70;99.90
62991;DHT22;49084;48.204;16.202;2022-12-18T06:24:50;-4.50;99.90
62991;DHT22;49084;48.204;16.202;2022-12-18T06:27:16;-4.70;99.90
62991;DHT22;49084;48.204;16.202;2022-12-18T06:29:42;-5.00;99.90
62991;DHT22;49084;48.204;16.202;2022-12-18T06:32:08;-6.30;99.90
62991;DHT22;49084;48.204;16.202;2022-12-18T06:34:33;-6.30;99.90
62991;DHT22;49084;48.204;16.202;2022-12-18T06:36:59;-6.30;99.90
62991;DHT22;49084;48.204;16.202;2022-12-18T06:39:27;-6.30;99.90
62991;DHT22;49084;48.204;16.202;2022-12-18T06:41:53;-6.30;99.90
62991;DHT22;49084;48.204;16.202;2022-12-18T06:44:19;-6.40;99.90
62991;DHT22;49084;48.204;16.202;2022-12-18T06:46:44;-6.40;99.90
62991;DHT22;49084;48.204;16.202;2022-12-18T06:49:10;-5.50;99.90
62991;DHT22;49084;48.204;16.202;2022-12-18T06:51:36;-6.40;99.90
62991;DHT22;49084;48.204;16.202;2022-12-18T06:54:02;-6.00;99.90
62991;DHT22;49084;48.204;16.202;2022-12-18T06:56:28;-6.40;99.90
62991;DHT22;49084;48.204;16.202;2022-12-18T06:58:54;-6.40;99.90
62991;DHT22;49084;48.204;16.202;2022-12-18T07:01:21;-6.40;99.90
62991;DHT22;49084;48.204;16.202;2022-12-18T07:03:47;-6.50;99.90
62991;DHT22;49084;48.204;16.202;2022-12-18T07:06:18;-6.50;99.90
62991;DHT22;49084;48.204;16.202;2022-12-18T07:08:45;-6.50;99.90
62991;DHT22;49084;48.204;16.202;2022-12-18T07:11:11;-6.50;99.90
62991;DHT22;49084;48.204;16.202;2022-12-18T07:13:37;-6.40;99.90
62991;DHT22;49084;48.204;16.202;2022-12-18T07:18:32;-6.30;99.90
62991;DHT22;49084;48.204;16.202;2022-12-18T07:20:58;-5.60;99.90
62991;DHT22;49084;48.204;16.202;2022-12-18T07:23:27;-5.60;99.90
62991;DHT22;49084;48.204;16.202;2022-12-18T07:25:52;-6.30;99.90
62991;DHT22;49084;48.204;16.202;2022-12-18T07:28:18;-4.20;99.90
62991;DHT22;49084;48.204;16.202;2022-12-18T07:30:44;-6.20;99.90
62991;DHT22;49084;48.204;16.202;2022-12-18T07:33:09;-6.30;99.90
62991;DHT22;49084;48.204;16.202;2022-12-18T07:35:35;-6.30;99.90
62991;DHT22;49084;48.204;16.202;2022-12-18T07:38:00;-6.30;99.90
62991;DHT22;49084;48.204;16.202;2022-12-18T07:40:26;-6.20;99.90
62991;DHT22;49084;48.204;16.202;2022-12-18T07:42:52;-6.20;99.90
62991;DHT22;49084;48.204;16.202;2022-12-18T07:45:17;-4.30;99.90
62991;DHT22;49084;48.204;16.202;2022-12-18T07:47:43;-5.10;99.90
62991;DHT22;49084;48.204;16.202;2022-12-18T07:50:09;-4.10;99.90
62991;DHT22;49084;48.204;16.202;2022-12-18T07:52:34;-4.20;99.90
62991;DHT22;49084;48.204;16.202;2022-12-18T07:55:00;-6.20;99.90
62991;DHT22;49084;48.204;16.202;2022-12-18T07:57:26;-6.10;99.90
62991;DHT22;49084;48.204;16.202;2022-12-18T07:59:51;-5.30;99.90
62991;DHT22;49084;48.204;16.202;2022-12-18T08:02:17;-6.00;99.90
62991;DHT22;49084;48.204;16.202;2022-12-18T08:04:42;-6.00;99.90
62991;DHT22;49084;48.204;16.202;2022-12-18T08:07:08;-6.00;99.90
62991;DHT22;49084;48.204;16.202;2022-12-18T08:09:34;-4.30;99.90
62991;DHT22;49084;48.204;16.202;2022-12-18T08:12:00;-5.90;99.90
62991;DHT22;49084;48.204;16.202;2022-12-18T08:14:26;-5.80;99.90
62991;DHT22;49084;48.204;16.202;2022-12-18T08:16:51;-5.70;99.90
62991;DHT22;49084;48.204;16.202;2022-12-18T08:19:17;-3.60;99.90
62991;DHT22;49084;48.204;16.202;2022-12-18T08:21:43;-5.40;99.90
62991;DHT22;49084;48.204;16.202;2022-12-18T08:24:09;-3.70;99.90
62991;DHT22;49084;48.204;16.202;2022-12-18T08:26:35;-5.00;99.90
62991;DHT22;49084;48.204;16.202;2022-12-18T08:29:01;-3.30;99.90
62991;DHT22;49084;48.204;16.202;2022-12-18T08:31:28;-2.80;99.90
62991;DHT22;49084;48.204;16.202;2022-12-18T08:33:55;-3.90;99.90
62991;DHT22;49084;48.204;16.202;2022-12-18T08:36:22;-2.50;99.90
62991;DHT22;49084;48.204;16.202;2022-12-18T08:38:48;-3.00;99.90
62991;DHT22;49084;48.204;16.202;2022-12-18T08:41:15;-2.90;99.90
62991;DHT22;49084;48.204;16.202;2022-12-18T08:43:42;-2.70;99.90
62991;DHT22;49084;48.204;16.202;2022-12-18T08:46:27;-1.80;99.90
62991;DHT22;49084;48.204;16.202;2022-12-18T08:48:56;-2.60;99.90
62991;DHT22;49084;48.204;16.202;2022-12-18T08:51:22;-2.60;99.90
62991;DHT22;49084;48.204;16.202;2022-12-18T08:53:47;-2.60;99.90
62991;DHT22;49084;48.204;16.202;2022-12-18T08:56:14;-2.60;99.90
62991;DHT22;49084;48.204;16.202;2022-12-18T08:58:40;-2.70;99.90
62991;DHT22;49084;48.204;16.202;2022-12-18T09:01:08;-2.70;99.90
62991;DHT22;49084;48.204;16.202;2022-12-18T09:03:37;-2.80;99.90
62991;DHT22;49084;48.204;16.202;2022-12-18T09:06:04;-2.70;99.90
62991;DHT22;49084;48.204;16.202;2022-12-18T09:08:30;-2.70;99.90
62991;DHT22;49084;48.204;16.202;2022-12-18T09:10:55;-2.70;99.90
62991;DHT22;49084;48.204;16.202;2022-12-18T09:13:22;-2.60;99.90
62991;DHT22;49084;48.204;16.202;2022-12-18T09:15:51;-2.60;99.90
62991;DHT22;49084;48.204;16.202;2022-12-18T09:18:19;-2.60;99.90
62991;DHT22;49084;48.204;16.202;2022-12-18T09:20:46;-2.10;99.90
62991;DHT22;49084;48.204;16.202;2022-12-18T09:23:12;-2.10;99.90
62991;DHT22;49084;48.204;16.202;2022-12-18T09:25:38;-2.50;99.90
62991;DHT22;49084;48.204;16.202;2022-12-18T09:28:17;-1.90;99.90
62991;DHT22;49084;48.204;16.202;2022-12-18T09:30:44;-2.40;99.90
62991;DHT22;49084;48.204;16.202;2022-12-18T09:33:10;-1.60;99.90
62991;DHT22;49084;48.204;16.202;2022-12-18T09:35:37;-2.30;99.90
62991;DHT22;49084;48.204;16.202;2022-12-18T09:38:02;-1.30;99.90
62991;DHT22;49084;48.204;16.202;2022-12-18T09:40:34;-2.30;99.90
62991;DHT22;49084;48.204;16.202;2022-12-18T09:43:04;-1.70;99.90
62991;DHT22;49084;48.204;16.202;2022-12-18T09:45:43;-2.10;99.90
62991;DHT22;49084;48.204;16.202;2022-12-18T09:48:31;-2.00;99.90
62991;DHT22;49084;48.204;16.202;2022-12-18T09:51:02;-2.00;99.90
62991;DHT22;49084;48.204;16.202;2022-12-18T09:53:32;-1.60;99.90
62991;DHT22;49084;48.204;16.202;2022-12-18T09:56:00;-1.60;99.90
62991;DHT22;49084;48.204;16.202;2022-12-18T09:58:35;-1.80;99.90
62991;DHT22;49084;48.204;16.202;2022-12-18T10:01:10;-1.80;99.90
62991;DHT22;49084;48.204;16.202;2022-12-18T10:03:37;-1.60;99.90
62991;DHT22;49084;48.204;16.202;2022-12-18T10:11:43;-1.50;99.90
62991;DHT22;49084;48.204;16.202;2022-12-18T10:19:47;-1.30;99.90
62991;DHT22;49084;48.204;16.202;2022-12-18T10:28:16;-1.50;99.90
62991;DHT22;49084;48.204;16.202;2022-12-18T10:30:43;-1.70;99.90
62991;DHT22;49084;48.204;16.202;2022-12-18T10:33:21;-1.80;99.90
62991;DHT22;49084;48.204;16.202;2022-12-18T10:35:52;-1.80;99.90
62991;DHT22;49084;48.204;16.202;2022-12-18T10:40:58;-1.60;99.90
62991;DHT22;49084;48.204;16.202;2022-12-18T10:43:38;-1.60;99.90
62991;DHT22;49084;48.204;16.202;2022-12-18T10:51:34;-1.50;99.90
62991;DHT22;49084;48.204;16.202;2022-12-18T10:56:33;-1.30;99.90
62991;DHT22;49084;48.204;16.202;2022-12-18T10:59:05;-1.40;99.90
62991;DHT22;49084;48.204;16.202;2022-12-18T11:01:55;-0.50;99.90
62991;DHT22;49084;48.204;16.202;2022-12-18T11:04:27;-1.20;99.90
62991;DHT22;49084;48.204;16.202;2022-12-18T11:07:00;-1.50;99.90
62991;DHT22;49084;48.204;16.202;2022-12-18T11:09:36;-1.40;99.90
62991;DHT22;49084;48.204;16.202;2022-12-18T11:12:08;-1.10;99.90
62991;DHT22;49084;48.204;16.202;2022-12-18T11:14:43;-1.40;99.90
62991;DHT22;49084;48.204;16.202;2022-12-18T11:17:33;-1.30;99.90
62991;DHT22;49084;48.204;16.202;2022-12-18T11:20:40;-1.10;99.90
62991;DHT22;49084;48.204;16.202;2022-12-18T11:23:20;-1.40;99.90
62991;DHT22;49084;48.204;16.202;2022-12-18T11:25:57;-1.40;99.90
62991;DHT22;49084;48.204;16.202;2022-12-18T11:28:29;-1.40;99.90
62991;DHT22;49084;48.204;16.202;2022-12-18T11:31:24;-1.40;99.90
62991;DHT22;49084;48.204;16.202;2022-12-18T11:36:38;-1.30;99.90
62991;DHT22;49084;48.204;16.202;2022-12-18T11:41:54;-1.50;99.90
62991;DHT22;49084;48.204;16.202;2022-12-18T11:53:01;-1.70;99.90
62991;DHT22;49084;48.204;16.202;2022-12-18T12:00:46;-1.90;99.90
62991;DHT22;49084;48.204;16.202;2022-12-18T12:03:27;-1.80;99.90
62991;DHT22;49084;48.204;16.202;2022-12-18T12:09:15;-1.90;99.90
62991;DHT22;49084;48.204;16.202;2022-12-18T12:27:46;-1.60;99.90
62991;DHT22;49084;48.204;16.202;2022-12-18T12:30:20;-1.50;99.90
62991;DHT22;49084;48.204;16.202;2022-12-18T12:38:21;-1.40;99.90
62991;DHT22;49084;48.204;16.202;2022-12-18T12:40:52;-1.30;99.90
62991;DHT22;49084;48.204;16.202;2022-12-18T12:43:35;-0.70;99.90
62991;DHT22;49084;48.204;16.202;2022-12-18T12:48:50;-1.30;99.90
62991;DHT22;49084;48.204;16.202;2022-12-18T12:53:50;-1.30;99.90
62991;DHT22;49084;48.204;16.202;2022-12-18T12:56:18;-1.20;99.90
62991;DHT22;49084;48.204;16.202;2022-12-18T13:01:52;-1.30;99.90
62991;DHT22;49084;48.204;16.202;2022-12-18T13:04:40;-1.40;99.90
62991;DHT22;49084;48.204;16.202;2022-12-18T13:07:37;-1.40;99.90
62991;DHT22;49084;48.204;16.202;2022-12-18T13:12:58;-1.30;99.90
62991;DHT22;49084;48.204;16.202;2022-12-18T13:31:00;-1.50;99.90
62991;DHT22;49084;48.204;16.202;2022-12-18T13:36:15;-1.10;99.90
62991;DHT22;49084;48.204;16.202;2022-12-18T13:38:42;-1.50;99.90
62991;DHT22;49084;48.204;16.202;2022-12-18T13:51:42;-1.50;99.90
62991;DHT22;49084;48.204;16.202;2022-12-18T13:54:17;-1.20;99.90
62991;DHT22;49084;48.204;16.202;2022-12-18T13:56:45;-1.50;99.90
62991;DHT22;49084;48.204;16.202;2022-12-18T14:01:58;-1.50;99.90
62991;DHT22;49084;48.204;16.202;2022-12-18T14:04:30;-1.50;99.90
62991;DHT22;49084;48.204;16.202;2022-12-18T14:07:16;-1.50;99.90
62991;DHT22;49084;48.204;16.202;2022-12-18T14:09:48;-1.50;99.90
62991;DHT22;49084;48.204;16.202;2022-12-18T14:12:20;-1.50;99.90
62991;DHT22;49084;48.204;16.202;2022-12-18T14:15:11;-1.50;99.90
62991;DHT22;49084;48.204;16.202;2022-12-18T14:17:43;-1.50;99.90
62991;DHT22;49084;48.204;16.202;2022-12-18T14:20:14;-1.60;99.90
62991;DHT22;49084;48.204;16.202;2022-12-18T14:22:44;-1.60;99.90
62991;DHT22;49084;48.204;16.202;2022-12-18T14:25:29;-1.70;99.90
62991;DHT22;49084;48.204;16.202;2022-12-18T14:30:38;-1.80;99.90
62991;DHT22;49084;48.204;16.202;2022-12-18T14:35:32;-1.80;99.90
62991;DHT22;49084;48.204;16.202;2022-12-18T14:40:47;-1.80;99.90
62991;DHT22;49084;48.204;16.202;2022-12-18T14:43:13;-1.70;99.90
62991;DHT22;49084;48.204;16.202;2022-12-18T14:45:41;-1.80;99.90
62991;DHT22;49084;48.204;16.202;2022-12-18T14:48:08;-1.80;99.90
62991;DHT22;49084;48.204;16.202;2022-12-18T14:50:34;-1.80;99.90
62991;DHT22;49084;48.204;16.202;2022-12-18T14:53:00;-1.80;99.90
62991;DHT22;49084;48.204;16.202;2022-12-18T14:55:26;-1.80;99.90
62991;DHT22;49084;48.204;16.202;2022-12-18T14:57:54;-1.80;99.90
62991;DHT22;49084;48.204;16.202;2022-12-18T15:00:23;-1.50;99.90
62991;DHT22;49084;48.204;16.202;2022-12-18T15:02:54;-1.80;99.90
62991;DHT22;49084;48.204;16.202;2022-12-18T15:05:29;-1.80;99.90
62991;DHT22;49084;48.204;16.202;2022-12-18T15:07:58;-1.60;99.90
62991;DHT22;49084;48.204;16.202;2022-12-18T15:10:28;-1.80;99.90
62991;DHT22;49084;48.204;16.202;2022-12-18T15:15:44;-1.90;99.90
62991;DHT22;49084;48.204;16.202;2022-12-18T15:20:54;-1.90;99.90
62991;DHT22;49084;48.204;16.202;2022-12-18T15:23:35;-2.00;99.90
62991;DHT22;49084;48.204;16.202;2022-12-18T15:26:08;-2.00;99.90
62991;DHT22;49084;48.204;16.202;2022-12-18T15:28:46;-1.90;99.90
62991;DHT22;49084;48.204;16.202;2022-12-18T15:33:41;-2.00;99.90
62991;DHT22;49084;48.204;16.202;2022-12-18T15:36:14;-2.00;99.90
62991;DHT22;49084;48.204;16.202;2022-12-18T15:38:51;-2.00;99.90
62991;DHT22;49084;48.204;16.202;2022-12-18T15:41:19;-2.00;99.90
62991;DHT22;49084;48.204;16.202;2022-12-18T15:43:49;-1.90;99.90
62991;DHT22;49084;48.204;16.202;2022-12-18T15:46:18;-1.90;99.90
62991;DHT22;49084;48.204;16.202;2022-12-18T15:48:45;-1.90;99.90
62991;DHT22;49084;48.204;16.202;2022-12-18T15:53:42;-1.90;99.90
62991;DHT22;49084;48.204;16.202;2022-12-18T15:56:13;-1.50;99.90
62991;DHT22;49084;48.204;16.202;2022-12-18T15:58:58;-1.90;99.90
62991;DHT22;49084;48.204;16.202;2022-12-18T16:01:28;-1.90;99.90
62991;DHT22;49084;48.204;16.202;2022-12-18T16:03:57;-1.90;99.90
62991;DHT22;49084;48.204;16.202;2022-12-18T16:06:23;-1.90;99.90
62991;DHT22;49084;48.204;16.202;2022-12-18T16:08:49;-1.90;99.90
62991;DHT22;49084;48.204;16.202;2022-12-18T16:11:27;-1.90;99.90
62991;DHT22;49084;48.204;16.202;2022-12-18T16:14:21;-1.90;99.90
62991;DHT22;49084;48.204;16.202;2022-12-18T16:16:51;-1.80;99.90
62991;DHT22;49084;48.204;16.202;2022-12-18T16:19:18;-1.80;99.90
62991;DHT22;49084;48.204;16.202;2022-12-18T16:21:46;-1.80;99.90
62991;DHT22;49084;48.204;16.202;2022-12-18T16:24:20;-1.80;99.90
62991;DHT22;49084;48.204;16.202;2022-12-18T16:26:50;-1.80;99.90
62991;DHT22;49084;48.204;16.202;2022-12-18T16:29:18;-1.80;99.90
62991;DHT22;49084;48.204;16.202;2022-12-18T16:31:47;-1.80;99.90
62991;DHT22;49084;48.204;16.202;2022-12-18T16:36:48;-1.80;99.90
62991;DHT22;49084;48.204;16.202;2022-12-18T16:39:16;-1.80;99.90
62991;DHT22;49084;48.204;16.202;2022-12-18T16:41:42;-1.80;99.90
62991;DHT22;49084;48.204;16.202;2022-12-18T16:44:09;-1.70;99.90
62991;DHT22;49084;48.204;16.202;2022-12-18T16:46:36;-1.50;99.90
62991;DHT22;49084;48.204;16.202;2022-12-18T16:49:03;-1.70;99.90
62991;DHT22;49084;48.204;16.202;2022-12-18T16:51:32;-1.80;99.90
62991;DHT22;49084;48.204;16.202;2022-12-18T16:54:00;-1.80;99.90
62991;DHT22;49084;48.204;16.202;2022-12-18T16:56:26;-1.80;99.90
62991;DHT22;49084;48.204;16.202;2022-12-18T16:58:54;-1.60;99.90
62991;DHT22;49084;48.204;16.202;2022-12-18T17:01:23;-1.80;99.90
62991;DHT22;49084;48.204;16.202;2022-12-18T17:04:00;-1.80;99.90
62991;DHT22;49084;48.204;16.202;2022-12-18T17:06:28;-1.70;99.90
62991;DHT22;49084;48.204;16.202;2022-12-18T17:08:58;-1.70;99.90
62991;DHT22;49084;48.204;16.202;2022-12-18T17:11:25;-1.70;99.90
62991;DHT22;49084;48.204;16.202;2022-12-18T17:13:52;-1.60;99.90
62991;DHT22;49084;48.204;16.202;2022-12-18T17:16:18;-1.60;99.90
62991;DHT22;49084;48.204;16.202;2022-12-18T17:18:45;-1.60;99.90
62991;DHT22;49084;48.204;16.202;2022-12-18T17:21:12;-1.60;99.90
62991;DHT22;49084;48.204;16.202;2022-12-18T17:23:40;-1.50;99.90
62991;DHT22;49084;48.204;16.202;2022-12-18T17:26:07;-1.50;99.90
62991;DHT22;49084;48.204;16.202;2022-12-18T17:28:35;-1.50;99.90
62991;DHT22;49084;48.204;16.202;2022-12-18T17:31:13;-1.50;99.90
62991;DHT22;49084;48.204;16.202;2022-12-18T17:33:41;-1.40;99.90
62991;DHT22;49084;48.204;16.202;2022-12-18T17:36:08;-1.40;99.90
62991;DHT22;49084;48.204;16.202;2022-12-18T17:38:35;-1.40;99.90
62991;DHT22;49084;48.204;16.202;2022-12-18T17:41:06;-1.40;99.90
62991;DHT22;49084;48.204;16.202;2022-12-18T17:43:32;-1.40;99.90
62991;DHT22;49084;48.204;16.202;2022-12-18T17:46:04;-1.40;99.90
62991;DHT22;49084;48.204;16.202;2022-12-18T17:48:32;-1.40;99.90
62991;DHT22;49084;48.204;16.202;2022-12-18T17:51:05;-1.30;99.90
62991;DHT22;49084;48.204;16.202;2022-12-18T17:53:32;-1.30;99.90
62991;DHT22;49084;48.204;16.202;2022-12-18T17:56:00;-1.30;99.90
62991;DHT22;49084;48.204;16.202;2022-12-18T17:58:27;-1.30;99.90
62991;DHT22;49084;48.204;16.202;2022-12-18T18:00:54;-1.30;99.90
62991;DHT22;49084;48.204;16.202;2022-12-18T18:03:20;-1.30;99.90
62991;DHT22;49084;48.204;16.202;2022-12-18T18:05:46;-1.30;99.90
62991;DHT22;49084;48.204;16.202;2022-12-18T18:08:12;-1.30;99.90